Time;durP1;ratioP1;P1;durP2;ratioP2;P2;SDS_P1;SDS_P2;PMS_P1;PMS_P2;Temp;Humidity;BMP_temperature;BMP_pressure;BME280_temperature;BME280_humidity;BME280_pressure;Samples;Min_cycle;Max_cycle;Signal;HPM_P1;HPM_P2
2023/05/23 00:01:25;;;;;;;22.63;18.33;;;;;;;;;;5053495;28;20025;-58
2023/05/23 00:03:54;;;;;;;27.45;20.48;;;;;;;;;;5054086;28;20037;-58
2023/05/23 00:06:20;;;;;;;22.10;17.67;;;;;;;;;;5054044;28;20460;-58
2023/05/23 00:08:46;;;;;;;22.95;17.75;;;;;;;;;;5053518;28;20415;-58
2023/05/23 00:11:12;;;;;;;26.15;19.27;;;;;;;;;;5053434;28;20029;-58
2023/05/23 00:13:38;;;;;;;21.50;19.15;;;;;;;;;;5053262;28;20139;-59
2023/05/23 00:16:08;;;;;;;23.52;20.98;;;;;;;;;;5053392;28;20051;-58
2023/05/23 00:18:34;;;;;;;29.23;22.40;;;;;;;;;;5053426;28;20471;-58
2023/05/23 00:21:01;;;;;;;28.23;23.25;;;;;;;;;;5053393;28;20040;-58
2023/05/23 00:23:28;;;;;;;34.20;23.17;;;;;;;;;;5053247;28;20029;-58
2023/05/23 00:25:54;;;;;;;27.30;23.08;;;;;;;;;;5053820;28;20035;-58
2023/05/23 00:28:21;;;;;;;34.58;24.45;;;;;;;;;;5053706;28;20036;-59
2023/05/23 00:30:50;;;;;;;36.00;27.27;;;;;;;;;;5052972;28;20423;-58
2023/05/23 00:33:16;;;;;;;32.30;22.85;;;;;;;;;;5053191;28;20025;-58
2023/05/23 00:35:42;;;;;;;33.13;26.25;;;;;;;;;;5053256;28;20083;-58
2023/05/23 00:38:10;;;;;;;29.63;24.95;;;;;;;;;;5053430;28;20029;-58
2023/05/23 00:40:36;;;;;;;30.45;25.25;;;;;;;;;;5053692;28;20057;-58
2023/05/23 00:43:02;;;;;;;30.75;24.85;;;;;;;;;;5053172;28;20036;-58
2023/05/23 00:45:28;;;;;;;33.38;24.80;;;;;;;;;;5053140;28;20017;-58
2023/05/23 00:47:54;;;;;;;29.77;26.52;;;;;;;;;;5053193;28;20024;-58
2023/05/23 00:50:20;;;;;;;32.22;26.85;;;;;;;;;;5053150;28;20021;-58
2023/05/23 00:52:47;;;;;;;30.13;26.83;;;;;;;;;;5052985;28;20029;-58
2023/05/23 00:55:14;;;;;;;46.85;28.80;;;;;;;;;;5055171;28;20036;-58
2023/05/23 00:57:43;;;;;;;36.72;26.23;;;;;;;;;;5056964;28;20063;-58
2023/05/23 01:00:09;;;;;;;37.28;27.23;;;;;;;;;;5056620;28;20068;-58
2023/05/23 01:02:40;;;;;;;29.23;25.65;;;;;;;;;;5056572;28;20029;-58
2023/05/23 01:05:06;;;;;;;;;;;;;;;;;;5056937;28;20066;-58
2023/05/23 01:07:32;;;;;;;34.42;25.98;;;;;;;;;;5056605;28;19995;-58
2023/05/23 01:09:58;;;;;;;39.58;27.88;;;;;;;;;;5057014;28;20029;-58
2023/05/23 01:12:45;;;;;;;36.63;26.98;;;;;;;;;;5056853;28;20033;-58
2023/05/23 01:15:13;;;;;;;32.63;27.27;;;;;;;;;;5056227;28;20493;-58
2023/05/23 01:17:44;;;;;;;35.17;27.23;;;;;;;;;;5056386;28;20040;-58
2023/05/23 01:20:21;;;;;;;37.42;29.38;;;;;;;;;;5056565;28;20025;-59
2023/05/23 01:23:02;;;;;;;33.83;26.58;;;;;;;;;;5056712;28;20036;-58
2023/05/23 01:25:35;;;;;;;39.55;28.00;;;;;;;;;;5056154;28;20017;-59
2023/05/23 01:28:01;;;;;;;37.17;27.90;;;;;;;;;;5056680;28;20036;-59
2023/05/23 01:30:30;;;;;;;38.03;28.85;;;;;;;;;;5056078;28;20032;-59
2023/05/23 01:32:56;;;;;;;33.88;27.55;;;;;;;;;;5056033;28;20039;-59
2023/05/23 01:35:25;;;;;;;37.67;27.55;;;;;;;;;;5056729;28;20047;-59
2023/05/23 01:37:52;;;;;;;34.10;28.70;;;;;;;;;;5055941;28;20044;-59
2023/05/23 01:40:18;;;;;;;42.92;30.45;;;;;;;;;;5055805;28;20021;-59
2023/05/23 01:42:44;;;;;;;40.67;29.60;;;;;;;;;;5056102;28;20075;-59
2023/05/23 01:45:10;;;;;;;34.90;29.23;;;;;;;;;;5055780;28;20066;-59
2023/05/23 01:47:37;;;;;;;39.08;30.95;;;;;;;;;;5055850;28;20455;-59
2023/05/23 01:50:03;;;;;;;39.58;30.83;;;;;;;;;;5055663;28;20021;-59
2023/05/23 01:52:29;;;;;;;36.75;28.20;;;;;;;;;;5055564;28;20025;-59
2023/05/23 01:54:56;;;;;;;38.58;28.77;;;;;;;;;;5055977;28;20036;-59
2023/05/23 01:57:22;;;;;;;37.63;28.77;;;;;;;;;;5055690;28;20048;-59
2023/05/23 01:59:48;;;;;;;42.08;29.13;;;;;;;;;;5056133;28;20035;-59
2023/05/23 02:02:14;;;;;;;43.40;30.60;;;;;;;;;;5056274;28;20029;-59
2023/05/23 02:04:40;;;;;;;39.15;30.50;;;;;;;;;;5055523;28;20035;-59
2023/05/23 02:07:06;;;;;;;44.30;32.75;;;;;;;;;;5055063;28;20024;-59
2023/05/23 02:09:32;;;;;;;42.58;30.08;;;;;;;;;;5055367;28;20021;-59
2023/05/23 02:11:58;;;;;;;39.53;30.85;;;;;;;;;;5055252;28;20040;-59
2023/05/23 02:14:25;;;;;;;36.38;29.45;;;;;;;;;;5055468;28;20166;-59
2023/05/23 02:16:51;;;;;;;37.05;29.50;;;;;;;;;;5055421;28;20033;-59
2023/05/23 02:19:17;;;;;;;40.83;31.50;;;;;;;;;;5055677;28;20026;-59
2023/05/23 02:21:43;;;;;;;43.05;32.63;;;;;;;;;;5055177;28;20036;-59
2023/05/23 02:24:10;;;;;;;38.53;32.45;;;;;;;;;;5055081;28;20057;-59
2023/05/23 02:26:36;;;;;;;40.22;31.80;;;;;;;;;;5055581;28;20032;-59
2023/05/23 02:29:02;;;;;;;39.97;32.05;;;;;;;;;;5055042;28;20370;-59
2023/05/23 02:31:27;;;;;;;39.67;30.25;;;;;;;;;;5055006;28;20033;-59
2023/05/23 02:33:53;;;;;;;45.63;31.90;;;;;;;;;;5054723;28;20033;-59
2023/05/23 02:36:20;;;;;;;42.83;33.40;;;;;;;;;;5055452;28;20099;-59
2023/05/23 02:38:46;;;;;;;44.05;34.08;;;;;;;;;;5055313;28;20017;-59
2023/05/23 02:41:12;;;;;;;45.92;33.08;;;;;;;;;;5054780;28;20028;-59
2023/05/23 02:43:38;;;;;;;38.17;33.92;;;;;;;;;;5054727;28;20158;-59
2023/05/23 02:46:04;;;;;;;46.83;33.53;;;;;;;;;;5054955;28;20052;-59
2023/05/23 02:48:30;;;;;;;37.83;32.55;;;;;;;;;;5055447;28;20124;-59
2023/05/23 02:50:56;;;;;;;44.92;32.92;;;;;;;;;;5054871;28;20410;-59
2023/05/23 02:53:22;;;;;;;42.65;32.60;;;;;;;;;;5054942;28;20060;-59
2023/05/23 02:55:48;;;;;;;42.63;33.45;;;;;;;;;;5054995;28;20108;-59
2023/05/23 02:58:15;;;;;;;48.63;33.88;;;;;;;;;;5054129;28;20029;-59
2023/05/23 03:00:42;;;;;;;42.83;33.78;;;;;;;;;;5054554;28;20471;-59
2023/05/23 03:03:08;;;;;;;43.25;34.17;;;;;;;;;;5054326;28;20420;-59
2023/05/23 03:05:35;;;;;;;47.58;35.53;;;;;;;;;;5054833;28;20025;-59
2023/05/23 03:08:01;;;;;;;46.17;34.03;;;;;;;;;;5054239;28;20037;-59
2023/05/23 03:10:27;;;;;;;41.03;34.55;;;;;;;;;;5053974;28;20147;-59
2023/05/23 03:12:53;;;;;;;49.45;35.75;;;;;;;;;;5054252;28;20485;-59
2023/05/23 03:15:19;;;;;;;39.90;33.30;;;;;;;;;;5053640;28;20045;-59
2023/05/23 03:17:45;;;;;;;44.22;37.25;;;;;;;;;;5054478;28;20057;-59
2023/05/23 03:20:11;;;;;;;46.00;35.30;;;;;;;;;;5054022;28;20061;-59
2023/05/23 03:22:37;;;;;;;43.55;33.70;;;;;;;;;;5054064;28;20111;-59
2023/05/23 03:25:03;;;;;;;47.17;36.10;;;;;;;;;;5054741;28;20068;-59
2023/05/23 03:27:29;;;;;;;46.72;35.38;;;;;;;;;;5054050;28;20360;-59
2023/05/23 03:29:55;;;;;;;46.92;37.70;;;;;;;;;;5053969;28;20029;-59
2023/05/23 03:32:21;;;;;;;45.78;36.03;;;;;;;;;;5053860;28;20033;-59
2023/05/23 03:34:47;;;;;;;43.33;35.20;;;;;;;;;;5053361;28;20060;-59
2023/05/23 03:37:13;;;;;;;50.55;36.80;;;;;;;;;;5054634;28;20052;-59
2023/05/23 03:39:39;;;;;;;36.22;31.23;;;;;;;;;;5053924;28;20021;-59
2023/05/23 03:42:05;;;;;;;39.05;32.30;;;;;;;;;;5054116;28;20108;-59
2023/05/23 03:44:31;;;;;;;36.03;31.23;;;;;;;;;;5053689;28;20024;-59
2023/05/23 03:46:57;;;;;;;39.42;31.67;;;;;;;;;;5054224;28;20025;-59
2023/05/23 03:49:23;;;;;;;39.95;32.47;;;;;;;;;;5054288;28;20362;-59
2023/05/23 03:51:49;;;;;;;40.58;31.55;;;;;;;;;;5053593;28;20109;-59
2023/05/23 03:54:16;;;;;;;38.25;29.00;;;;;;;;;;5053617;28;20028;-59
2023/05/23 03:56:43;;;;;;;37.40;32.60;;;;;;;;;;5053522;28;20029;-59
2023/05/23 03:59:09;;;;;;;40.40;32.50;;;;;;;;;;5053591;28;20017;-59
2023/05/23 04:01:35;;;;;;;38.50;32.67;;;;;;;;;;5053632;28;20025;-59
2023/05/23 04:04:01;;;;;;;36.80;30.48;;;;;;;;;;5053215;28;20462;-59
2023/05/23 04:06:30;;;;;;;36.38;29.92;;;;;;;;;;5054428;28;20033;-59
2023/05/23 04:08:56;;;;;;;39.88;30.92;;;;;;;;;;5054334;28;20025;-59
2023/05/23 04:11:22;;;;;;;36.72;31.65;;;;;;;;;;5053844;28;20370;-59
2023/05/23 04:13:48;;;;;;;34.20;30.50;;;;;;;;;;5053248;28;20091;-60
2023/05/23 04:16:15;;;;;;;32.83;28.65;;;;;;;;;;5053848;28;20450;-59
2023/05/23 04:18:42;;;;;;;36.67;28.85;;;;;;;;;;5053468;28;20029;-59
2023/05/23 04:21:08;;;;;;;32.50;27.85;;;;;;;;;;5053375;28;20032;-59
2023/05/23 04:23:34;;;;;;;33.38;26.48;;;;;;;;;;5053597;28;20029;-59
2023/05/23 04:26:00;;;;;;;35.85;28.70;;;;;;;;;;5053241;28;20091;-59
2023/05/23 04:28:29;;;;;;;40.95;28.60;;;;;;;;;;5053116;28;20021;-59
2023/05/23 04:30:55;;;;;;;34.08;28.60;;;;;;;;;;5057145;28;20048;-59
2023/05/23 04:33:21;;;;;;;33.05;29.52;;;;;;;;;;5057262;28;20463;-59
2023/05/23 04:35:48;;;;;;;38.45;28.65;;;;;;;;;;5057233;28;20401;-59
2023/05/23 04:38:14;;;;;;;36.35;29.80;;;;;;;;;;5057143;28;20048;-59
2023/05/23 04:40:40;;;;;;;31.48;26.70;;;;;;;;;;5057126;28;20489;-60
2023/05/23 04:43:08;;;;;;;34.97;29.08;;;;;;;;;;5056996;28;20021;-59
2023/05/23 04:45:35;;;;;;;37.83;28.33;;;;;;;;;;5056571;28;20467;-59
2023/05/23 04:48:01;;;;;;;30.45;26.83;;;;;;;;;;5057300;28;20108;-59
2023/05/23 04:50:31;;;;;;;35.35;29.92;;;;;;;;;;5056803;28;20071;-59
2023/05/23 04:52:57;;;;;;;31.52;27.98;;;;;;;;;;5057054;28;20475;-59
2023/05/23 04:55:23;;;;;;;31.45;26.10;;;;;;;;;;5057442;28;20108;-59
2023/05/23 04:57:49;;;;;;;33.53;28.60;;;;;;;;;;5056765;28;20021;-59
2023/05/23 05:00:15;;;;;;;37.50;29.58;;;;;;;;;;5056754;28;20374;-59
2023/05/23 05:02:42;;;;;;;33.60;29.23;;;;;;;;;;5056657;28;20052;-59
2023/05/23 05:05:08;;;;;;;35.15;27.10;;;;;;;;;;5057170;28;20060;-59
2023/05/23 05:07:38;;;;;;;31.98;28.50;;;;;;;;;;5056618;28;20029;-59
2023/05/23 05:10:04;;;;;;;33.67;26.87;;;;;;;;;;5056440;28;20025;-59
2023/05/23 05:12:30;;;;;;;30.92;27.85;;;;;;;;;;5056363;28;20033;-59
2023/05/23 05:14:56;;;;;;;32.58;27.15;;;;;;;;;;5056456;28;20485;-59
2023/05/23 05:17:22;;;;;;;31.35;27.45;;;;;;;;;;5056378;28;20021;-59
2023/05/23 05:19:48;;;;;;;32.53;28.15;;;;;;;;;;5056314;28;20025;-59
2023/05/23 05:22:14;;;;;;;28.98;25.27;;;;;;;;;;5056499;28;20028;-59
2023/05/23 05:24:40;;;;;;;29.98;26.55;;;;;;;;;;5056242;28;20052;-59
2023/05/23 05:27:08;;;;;;;31.80;28.30;;;;;;;;;;5056941;28;20029;-59
2023/05/23 05:29:34;;;;;;;30.70;27.15;;;;;;;;;;5056859;28;20048;-60
2023/05/23 05:32:00;;;;;;;35.33;27.13;;;;;;;;;;5056746;28;20110;-60
2023/05/23 05:34:26;;;;;;;33.97;29.00;;;;;;;;;;5056033;28;20398;-60
2023/05/23 05:36:54;;;;;;;29.77;26.33;;;;;;;;;;5056599;28;20025;-60
2023/05/23 05:39:22;;;;;;;29.60;26.38;;;;;;;;;;5056544;28;20108;-60
2023/05/23 05:41:48;;;;;;;28.67;25.88;;;;;;;;;;5054783;28;20029;-60
2023/05/23 05:44:14;;;;;;;29.95;26.27;;;;;;;;;;5055942;28;20025;-60
2023/05/23 05:46:40;;;;;;;30.50;27.33;;;;;;;;;;5056388;28;20104;-60
2023/05/23 05:49:06;;;;;;;31.33;27.88;;;;;;;;;;5055838;28;20018;-60
2023/05/23 05:51:32;;;;;;;30.05;25.92;;;;;;;;;;5056319;28;20028;-60
2023/05/23 05:53:58;;;;;;;28.00;25.13;;;;;;;;;;5055377;28;20505;-60
2023/05/23 05:56:25;;;;;;;29.17;26.20;;;;;;;;;;5056066;28;20074;-60
2023/05/23 05:58:50;;;;;;;29.30;26.25;;;;;;;;;;5055633;28;20040;-60
2023/05/23 06:01:16;;;;;;;30.40;27.10;;;;;;;;;;5055699;28;20017;-60
2023/05/23 06:03:43;;;;;;;30.42;24.92;;;;;;;;;;5056208;28;20029;-60
2023/05/23 06:06:09;;;;;;;26.35;23.63;;;;;;;;;;5056357;28;20032;-60
2023/05/23 06:08:35;;;;;;;29.65;26.50;;;;;;;;;;5055456;28;20063;-60
2023/05/23 06:11:01;;;;;;;28.08;25.10;;;;;;;;;;5055542;28;20418;-60
2023/05/23 06:13:27;;;;;;;27.90;24.92;;;;;;;;;;5055311;28;20410;-60
2023/05/23 06:15:53;;;;;;;28.55;25.42;;;;;;;;;;5055708;28;20051;-60
2023/05/23 06:18:19;;;;;;;27.55;24.73;;;;;;;;;;5055774;28;20013;-60
2023/05/23 06:20:44;;;;;;;32.28;26.63;;;;;;;;;;5054892;28;20445;-60
2023/05/23 06:23:10;;;;;;;34.40;26.67;;;;;;;;;;5055337;28;20472;-60
2023/05/23 06:25:36;;;;;;;30.30;26.48;;;;;;;;;;5055016;28;20366;-58
2023/05/23 06:28:02;;;;;;;31.27;26.42;;;;;;;;;;5055973;28;20033;-58
2023/05/23 06:30:28;;;;;;;31.50;27.85;;;;;;;;;;5055030;28;20466;-58
2023/05/23 06:32:54;;;;;;;31.65;26.17;;;;;;;;;;5055090;28;20048;-58
2023/05/23 06:35:20;;;;;;;28.02;25.02;;;;;;;;;;5054549;28;20051;-58
2023/05/23 06:37:47;;;;;;;29.67;26.45;;;;;;;;;;5055450;28;20035;-58
2023/05/23 06:40:13;;;;;;;28.63;25.80;;;;;;;;;;5054657;28;20067;-58
2023/05/23 06:42:39;;;;;;;28.73;25.70;;;;;;;;;;5054681;28;20032;-58
2023/05/23 06:45:05;;;;;;;30.50;27.27;;;;;;;;;;5054452;28;20463;-58
2023/05/23 06:47:31;;;;;;;30.60;27.30;;;;;;;;;;5055233;28;20064;-58
2023/05/23 06:49:57;;;;;;;27.75;24.90;;;;;;;;;;5054728;28;20057;-58
2023/05/23 06:52:23;;;;;;;30.15;26.95;;;;;;;;;;5054183;28;20029;-58
2023/05/23 06:54:50;;;;;;;30.98;27.58;;;;;;;;;;5054797;28;20104;-58
2023/05/23 06:57:16;;;;;;;29.08;26.30;;;;;;;;;;5054641;28;20020;-58
2023/05/23 06:59:42;;;;;;;34.72;26.30;;;;;;;;;;5055007;28;20021;-58
2023/05/23 07:02:08;;;;;;;29.92;24.83;;;;;;;;;;5054980;28;20032;-58
2023/05/23 07:04:34;;;;;;;28.45;25.45;;;;;;;;;;5054277;28;20036;-58
2023/05/23 07:07:01;;;;;;;27.67;24.73;;;;;;;;;;5054567;28;20056;-58
2023/05/23 07:09:27;;;;;;;28.10;25.20;;;;;;;;;;5054823;28;20037;-58
2023/05/23 07:11:52;;;;;;;28.58;25.80;;;;;;;;;;5054216;28;20352;-58
2023/05/23 07:14:19;;;;;;;29.05;26.17;;;;;;;;;;5054859;28;20049;-58
2023/05/23 07:16:45;;;;;;;29.70;26.70;;;;;;;;;;5054140;28;20025;-58
2023/05/23 07:19:11;;;;;;;29.70;26.80;;;;;;;;;;5054183;28;20045;-58
2023/05/23 07:21:37;;;;;;;28.25;25.40;;;;;;;;;;5054148;28;20363;-58
2023/05/23 07:24:03;;;;;;;29.55;26.45;;;;;;;;;;5054121;28;20017;-58
2023/05/23 07:26:29;;;;;;;29.25;25.52;;;;;;;;;;5054837;28;20060;-58
2023/05/23 07:28:55;;;;;;;28.40;24.30;;;;;;;;;;5054509;28;20458;-58
2023/05/23 07:31:21;;;;;;;29.00;26.00;;;;;;;;;;5054281;28;20043;-59
2023/05/23 07:33:47;;;;;;;27.05;23.95;;;;;;;;;;5053766;28;20510;-59
2023/05/23 07:36:13;;;;;;;26.15;23.50;;;;;;;;;;5054567;28;20020;-59
2023/05/23 07:38:39;;;;;;;25.27;22.67;;;;;;;;;;5053713;28;20025;-59
2023/05/23 07:41:05;;;;;;;23.83;21.33;;;;;;;;;;5053824;28;20100;-59
2023/05/23 07:43:31;;;;;;;22.33;20.13;;;;;;;;;;5053814;28;20060;-59
2023/05/23 07:45:57;;;;;;;22.80;20.40;;;;;;;;;;5054450;28;20434;-59
2023/05/23 07:48:25;;;;;;;22.08;19.92;;;;;;;;;;5053718;28;20018;-59
2023/05/23 07:50:53;;;;;;;23.77;21.38;;;;;;;;;;5053716;28;20371;-59
2023/05/23 07:53:20;;;;;;;24.80;22.45;;;;;;;;;;5054089;28;20048;-58
2023/05/23 07:55:46;;;;;;;22.83;20.42;;;;;;;;;;5053449;28;20106;-59
2023/05/23 07:58:12;;;;;;;24.42;22.00;;;;;;;;;;5053621;28;20025;-59
2023/05/23 08:00:40;;;;;;;24.73;22.25;;;;;;;;;;5054189;28;20025;-59
2023/05/23 08:03:06;;;;;;;26.45;23.67;;;;;;;;;;5054175;28;20063;-59
2023/05/23 08:05:32;;;;;;;26.15;23.45;;;;;;;;;;5057411;28;20401;-58
2023/05/23 08:07:58;;;;;;;28.48;25.58;;;;;;;;;;5058257;28;20102;-59
2023/05/23 08:10:27;;;;;;;24.88;22.30;;;;;;;;;;5058050;28;20053;-59
2023/05/23 08:12:53;;;;;;;23.92;21.08;;;;;;;;;;5057501;28;20033;-59
2023/05/23 08:15:19;;;;;;;23.85;21.20;;;;;;;;;;5058554;28;20099;-59
2023/05/23 08:17:45;;;;;;;19.65;17.65;;;;;;;;;;5057429;28;20017;-59
2023/05/23 08:20:11;;;;;;;19.58;17.67;;;;;;;;;;5057491;28;20021;-59
2023/05/23 08:22:37;;;;;;;20.58;18.48;;;;;;;;;;5057995;28;20025;-59
2023/05/23 08:25:03;;;;;;;18.85;16.90;;;;;;;;;;5058064;28;20452;-58
2023/05/23 08:27:30;;;;;;;19.10;17.17;;;;;;;;;;5057552;28;20358;-59
2023/05/23 08:29:56;;;;;;;20.63;18.42;;;;;;;;;;5057177;28;20033;-58
2023/05/23 08:32:22;;;;;;;20.33;18.20;;;;;;;;;;5057061;28;20078;-59
2023/05/23 08:34:48;;;;;;;19.42;16.92;;;;;;;;;;5056940;28;20025;-58
2023/05/23 08:37:14;;;;;;;18.40;16.55;;;;;;;;;;5057954;28;20024;-59
2023/05/23 08:39:40;;;;;;;19.27;17.27;;;;;;;;;;5056790;28;20029;-58
2023/05/23 08:42:06;;;;;;;19.15;17.17;;;;;;;;;;5057089;28;20032;-58
2023/05/23 08:44:32;;;;;;;17.63;15.70;;;;;;;;;;5057135;28;20025;-59
2023/05/23 08:46:59;;;;;;;18.55;16.65;;;;;;;;;;5057455;28;20443;-58
2023/05/23 08:49:25;;;;;;;19.05;17.25;;;;;;;;;;5056693;28;20459;-58
2023/05/23 08:51:51;;;;;;;17.70;15.85;;;;;;;;;;5057179;28;20028;-58
2023/05/23 08:54:18;;;;;;;17.95;16.15;;;;;;;;;;5057052;28;20523;-58
2023/05/23 08:56:44;;;;;;;17.40;14.57;;;;;;;;;;5056485;28;20036;-58
2023/05/23 08:59:11;;;;;;;17.40;15.65;;;;;;;;;;5057306;28;20459;-58
2023/05/23 09:01:38;;;;;;;16.73;14.60;;;;;;;;;;5056746;28;20029;-58
2023/05/23 09:04:05;;;;;;;15.68;14.07;;;;;;;;;;5057302;28;20419;-58
2023/05/23 09:06:31;;;;;;;16.85;14.75;;;;;;;;;;5057247;28;20100;-58
2023/05/23 09:08:57;;;;;;;16.25;14.63;;;;;;;;;;5056584;28;20438;-58
2023/05/23 09:11:24;;;;;;;15.93;14.23;;;;;;;;;;5056494;28;20017;-58
2023/05/23 09:13:50;;;;;;;15.77;13.35;;;;;;;;;;5056082;28;20060;-58
2023/05/23 09:16:19;;;;;;;16.30;14.55;;;;;;;;;;5056389;28;20021;-58
2023/05/23 09:18:45;;;;;;;18.05;16.13;;;;;;;;;;5056425;28;20021;-58
2023/05/23 09:21:12;;;;;;;18.42;16.15;;;;;;;;;;5056659;28;20024;-58
2023/05/23 09:23:39;;;;;;;16.58;15.07;;;;;;;;;;5056407;28;20040;-58
2023/05/23 09:26:06;;;;;;;16.92;15.23;;;;;;;;;;5056319;28;20482;-58
2023/05/23 09:28:35;;;;;;;15.85;14.25;;;;;;;;;;5056581;28;20035;-58
2023/05/23 09:31:02;;;;;;;15.32;13.82;;;;;;;;;;5056743;28;20031;-58
2023/05/23 09:33:39;;;;;;;17.35;13.90;;;;;;;;;;5056339;28;20025;-58
2023/05/23 09:36:06;;;;;;;16.35;14.75;;;;;;;;;;5056685;28;20355;-58
2023/05/23 09:38:32;;;;;;;15.88;14.23;;;;;;;;;;5056000;28;20031;-58
2023/05/23 09:40:58;;;;;;;14.93;13.48;;;;;;;;;;5055605;28;20060;-58
2023/05/23 09:43:24;;;;;;;14.02;12.52;;;;;;;;;;5055950;28;20028;-58
2023/05/23 09:45:54;;;;;;;14.98;13.57;;;;;;;;;;5056357;28;20025;-58
2023/05/23 09:48:28;;;;;;;13.32;12.05;;;;;;;;;;5056305;28;20369;-58
2023/05/23 09:50:54;;;;;;;13.57;12.27;;;;;;;;;;5055857;28;20033;-58
2023/05/23 09:53:21;;;;;;;13.40;12.13;;;;;;;;;;5055723;28;20054;-58
2023/05/23 09:55:49;;;;;;;14.10;11.68;;;;;;;;;;5055631;28;20037;-58
2023/05/23 09:58:16;;;;;;;12.93;11.05;;;;;;;;;;5055698;28;20153;-58
2023/05/23 10:00:43;;;;;;;13.65;11.93;;;;;;;;;;5055721;28;20528;-58
2023/05/23 10:03:13;;;;;;;12.93;11.68;;;;;;;;;;5055008;28;20032;-58
2023/05/23 10:05:56;;;;;;;14.43;11.93;;;;;;;;;;5055236;28;20378;-58
2023/05/23 10:08:28;;;;;;;12.02;10.82;;;;;;;;;;5055621;28;20032;-58
2023/05/23 10:11:15;;;;;;;13.77;11.82;;;;;;;;;;5055249;28;20028;-58
2023/05/23 10:13:42;;;;;;;11.48;10.07;;;;;;;;;;5055498;28;20029;-58
2023/05/23 10:16:11;;;;;;;14.07;11.82;;;;;;;;;;5055424;28;20367;-58
2023/05/23 10:18:43;;;;;;;12.88;11.40;;;;;;;;;;5055159;28;20118;-58
2023/05/23 10:21:11;;;;;;;12.32;10.75;;;;;;;;;;5055088;28;20064;-58
2023/05/23 10:23:37;;;;;;;13.63;10.13;;;;;;;;;;5054936;28;20108;-58
2023/05/23 10:26:04;;;;;;;11.40;10.27;;;;;;;;;;5055418;28;20021;-58
2023/05/23 10:28:30;;;;;;;11.70;10.55;;;;;;;;;;5054138;28;20449;-59
2023/05/23 10:30:57;;;;;;;11.23;8.82;;;;;;;;;;5055128;28;20032;-58
2023/05/23 10:33:23;;;;;;;12.38;9.52;;;;;;;;;;5054684;28;20032;-58
2023/05/23 10:35:56;;;;;;;11.50;9.90;;;;;;;;;;5055231;28;20036;-58
2023/05/23 10:38:27;;;;;;;9.23;8.32;;;;;;;;;;5054638;28;20100;-58
2023/05/23 10:41:06;;;;;;;10.73;9.63;;;;;;;;;;5054851;28;20070;-58
2023/05/23 10:43:38;;;;;;;10.35;9.20;;;;;;;;;;5054413;28;20025;-58
2023/05/23 10:46:04;;;;;;;11.77;9.20;;;;;;;;;;5055102;28;20340;-58
2023/05/23 10:48:34;;;;;;;8.98;8.07;;;;;;;;;;5055162;28;20029;-58
2023/05/23 10:51:03;;;;;;;9.60;8.55;;;;;;;;;;5054801;28;20025;-58
2023/05/23 10:53:32;;;;;;;8.60;7.70;;;;;;;;;;5054227;28;20075;-58
2023/05/23 10:55:58;;;;;;;8.95;8.05;;;;;;;;;;5054850;28;20067;-58
2023/05/23 10:58:24;;;;;;;9.02;8.13;;;;;;;;;;5054403;28;20368;-58
2023/05/23 11:00:54;;;;;;;9.85;8.13;;;;;;;;;;5054652;28;20182;-58
2023/05/23 11:03:32;;;;;;;8.23;7.38;;;;;;;;;;5054092;28;20052;-58
2023/05/23 11:05:58;;;;;;;8.13;7.28;;;;;;;;;;5054618;28;20032;-58
2023/05/23 11:08:24;;;;;;;9.02;8.13;;;;;;;;;;5054479;28;20356;-58
2023/05/23 11:10:59;;;;;;;8.75;7.85;;;;;;;;;;5053820;28;20033;-58
2023/05/23 11:13:25;;;;;;;8.57;7.63;;;;;;;;;;5053525;28;20052;-59
2023/05/23 11:15:51;;;;;;;8.18;7.38;;;;;;;;;;5054355;28;20041;-59
2023/05/23 11:18:20;;;;;;;9.40;7.45;;;;;;;;;;5054149;28;20087;-59
2023/05/23 11:20:46;;;;;;;9.05;7.47;;;;;;;;;;5054425;28;20088;-59
2023/05/23 11:23:12;;;;;;;8.38;7.32;;;;;;;;;;5053716;28;20029;-59
2023/05/23 11:25:42;;;;;;;7.88;6.72;;;;;;;;;;5054586;28;20063;-59
2023/05/23 11:28:09;;;;;;;8.20;7.15;;;;;;;;;;5053681;28;20021;-59
2023/05/23 11:30:36;;;;;;;11.18;6.70;;;;;;;;;;5053697;28;20024;-59
2023/05/23 11:33:12;;;;;;;7.50;6.80;;;;;;;;;;5053535;28;20108;-59
2023/05/23 11:35:38;;;;;;;8.23;6.93;;;;;;;;;;5054038;28;20108;-59
2023/05/23 11:38:05;;;;;;;7.20;6.50;;;;;;;;;;5053445;28;20442;-59
2023/05/23 11:40:32;;;;;;;6.90;6.20;;;;;;;;;;5053019;28;20025;-59
2023/05/23 11:42:59;;;;;;;7.20;6.50;;;;;;;;;;5053262;28;20382;-59
2023/05/23 11:45:25;;;;;;;7.38;5.63;;;;;;;;;;5053557;28;20017;-59
2023/05/23 11:47:51;;;;;;;7.57;6.78;;;;;;;;;;5053807;28;20159;-59
2023/05/23 11:50:19;;;;;;;6.68;6.00;;;;;;;;;;5053332;28;20467;-59
2023/05/23 11:52:50;;;;;;;7.18;6.45;;;;;;;;;;5052792;28;20037;-59
2023/05/23 11:55:16;;;;;;;7.93;7.13;;;;;;;;;;5053556;28;20029;-59
2023/05/23 11:57:43;;;;;;;8.23;7.43;;;;;;;;;;5053156;28;20021;-59
2023/05/23 12:00:10;;;;;;;8.43;7.63;;;;;;;;;;5053925;28;20025;-59
2023/05/23 12:02:39;;;;;;;8.70;7.80;;;;;;;;;;5052765;28;20036;-59
2023/05/23 12:05:09;;;;;;;8.00;7.20;;;;;;;;;;5052896;28;20052;-59
2023/05/23 12:07:35;;;;;;;6.68;5.97;;;;;;;;;;5053703;28;20025;-59
2023/05/23 12:10:03;;;;;;;10.25;5.82;;;;;;;;;;5053073;28;20036;-59
2023/05/23 12:12:29;;;;;;;8.10;7.18;;;;;;;;;;5052480;28;20021;-59
2023/05/23 12:14:56;;;;;;;8.18;7.07;;;;;;;;;;5053072;28;20163;-59
2023/05/23 12:17:22;;;;;;;7.82;7.03;;;;;;;;;;5053227;28;20367;-59
2023/05/23 12:19:48;;;;;;;8.98;7.88;;;;;;;;;;5053199;28;20029;-59
2023/05/23 12:22:14;;;;;;;8.90;7.05;;;;;;;;;;5053846;28;20071;-59
2023/05/23 12:24:46;;;;;;;7.18;6.30;;;;;;;;;;5053643;28;20359;-59
2023/05/23 12:27:12;;;;;;;7.72;6.97;;;;;;;;;;5053646;28;20021;-59
2023/05/23 12:29:38;;;;;;;8.05;7.25;;;;;;;;;;5052577;28;20398;-59
2023/05/23 12:32:05;;;;;;;8.57;6.97;;;;;;;;;;5052853;28;20470;-60
2023/05/23 12:34:31;;;;;;;7.78;6.80;;;;;;;;;;5053001;28;20029;-59
2023/05/23 12:36:58;;;;;;;6.82;5.78;;;;;;;;;;5053120;28;20119;-59
2023/05/23 12:39:28;;;;;;;6.20;5.60;;;;;;;;;;5053473;28;20021;-59
2023/05/23 12:41:57;;;;;;;6.97;6.27;;;;;;;;;;5052836;28;20039;-59
2023/05/23 12:44:23;;;;;;;6.78;5.60;;;;;;;;;;5052656;28;20382;-59
2023/05/23 12:46:49;;;;;;;7.57;6.00;;;;;;;;;;5052766;28;20518;-59
2023/05/23 12:49:15;;;;;;;6.63;5.72;;;;;;;;;;5052983;28;20055;-59
2023/05/23 12:51:41;;;;;;;6.07;5.50;;;;;;;;;;5056188;28;20021;-59
2023/05/23 12:54:08;;;;;;;7.72;6.25;;;;;;;;;;5056666;28;20025;-59
2023/05/23 12:56:34;;;;;;;8.18;6.85;;;;;;;;;;5056573;28;20031;-59
2023/05/23 12:59:00;;;;;;;8.57;5.68;;;;;;;;;;5056213;28;20116;-59
2023/05/23 13:01:27;;;;;;;5.70;5.18;;;;;;;;;;5057079;28;20390;-59
2023/05/23 13:03:53;;;;;;;7.10;6.07;;;;;;;;;;5056326;28;20040;-59
2023/05/23 13:06:19;;;;;;;7.85;6.72;;;;;;;;;;5056314;28;20021;-59
2023/05/23 13:08:45;;;;;;;6.10;4.75;;;;;;;;;;5056037;28;20386;-59
2023/05/23 13:11:11;;;;;;;5.82;5.03;;;;;;;;;;5056613;28;20111;-59
2023/05/23 13:13:37;;;;;;;5.75;4.70;;;;;;;;;;5056008;28;20029;-59
2023/05/23 13:16:03;;;;;;;5.90;5.30;;;;;;;;;;5055952;28;20375;-59
2023/05/23 13:18:29;;;;;;;4.75;4.25;;;;;;;;;;5056319;28;20255;-59
2023/05/23 13:20:55;;;;;;;5.13;4.63;;;;;;;;;;5056021;28;20463;-59
2023/05/23 13:23:21;;;;;;;5.35;4.47;;;;;;;;;;5056462;28;20102;-59
2023/05/23 13:25:49;;;;;;;4.85;3.85;;;;;;;;;;5056716;28;20163;-59
2023/05/23 13:28:16;;;;;;;5.10;4.57;;;;;;;;;;5055753;28;20021;-59
2023/05/23 13:30:42;;;;;;;5.97;4.05;;;;;;;;;;5055718;28;20106;-59
2023/05/23 13:33:07;;;;;;;4.35;3.88;;;;;;;;;;5055575;28;20479;-59
2023/05/23 13:35:33;;;;;;;5.57;4.63;;;;;;;;;;5055647;28;20025;-59
2023/05/23 13:37:59;;;;;;;4.93;4.32;;;;;;;;;;5055755;28;20489;-59
2023/05/23 13:40:25;;;;;;;6.60;4.90;;;;;;;;;;5055976;28;20025;-59
2023/05/23 13:42:51;;;;;;;6.55;4.07;;;;;;;;;;5055480;28;20036;-59
2023/05/23 13:45:18;;;;;;;4.80;4.30;;;;;;;;;;5055792;28;20030;-59
2023/05/23 13:47:45;;;;;;;6.18;4.68;;;;;;;;;;5055875;28;20048;-59
2023/05/23 13:50:11;;;;;;;4.88;4.38;;;;;;;;;;5056164;28;20354;-59
2023/05/23 13:52:37;;;;;;;5.35;4.78;;;;;;;;;;5055464;28;20093;-59
2023/05/23 13:55:04;;;;;;;5.38;4.25;;;;;;;;;;5055863;28;20025;-59
2023/05/23 13:57:30;;;;;;;5.22;4.15;;;;;;;;;;5055372;28;20060;-59
2023/05/23 13:59:56;;;;;;;5.60;4.57;;;;;;;;;;5055301;28;20029;-59
2023/05/23 14:02:22;;;;;;;12.88;4.60;;;;;;;;;;5054243;28;20036;-59
2023/05/23 14:04:51;;;;;;;5.38;4.15;;;;;;;;;;5055610;28;20054;-59
2023/05/23 14:07:17;;;;;;;4.65;4.07;;;;;;;;;;5055637;28;20155;-59
2023/05/23 14:09:43;;;;;;;4.80;3.40;;;;;;;;;;5054875;28;20356;-59
2023/05/23 14:12:10;;;;;;;4.20;3.55;;;;;;;;;;5055085;28;20025;-59
2023/05/23 14:14:36;;;;;;;4.95;3.97;;;;;;;;;;5054995;28;20482;-59
2023/05/23 14:17:02;;;;;;;3.58;3.10;;;;;;;;;;5054836;28;20033;-59
2023/05/23 14:19:28;;;;;;;4.68;4.03;;;;;;;;;;5055596;28;20029;-59
2023/05/23 14:21:54;;;;;;;5.28;4.35;;;;;;;;;;5055040;28;20091;-59